createdAt,value
2023-04-26T00:00:48.894Z,99647.94
2023-04-26T00:03:16.116Z,99648.34
2023-04-26T00:05:43.505Z,99646.94
2023-04-26T00:08:10.652Z,99647.97
2023-04-26T00:10:37.465Z,99648.81
2023-04-26T00:13:04.520Z,99651.53
2023-04-26T00:15:32.184Z,99652.69
2023-04-26T00:17:59.321Z,99655.41
2023-04-26T00:20:26.178Z,99653.72
2023-04-26T00:22:53.274Z,99660.06
2023-04-26T00:25:20.075Z,99661.19
2023-04-26T00:27:47.100Z,99663.75
2023-04-26T00:30:14.412Z,99666.47
2023-04-26T00:32:41.467Z,99685.53
2023-04-26T00:35:09.070Z,99670.25
2023-04-26T00:37:36.216Z,99672.97
2023-04-26T00:40:03.263Z,99683.38
2023-04-26T00:42:30.402Z,99677.38
2023-04-26T00:44:57.788Z,99681.88
2023-04-26T00:47:25.990Z,99685.81
2023-04-26T00:49:53.254Z,99692.88
2023-04-26T00:52:20.454Z,99693.19
2023-04-26T00:54:49.217Z,99690.56
2023-04-26T00:57:16.337Z,99690.22
2023-04-26T00:59:43.132Z,99692.09
2023-04-26T01:02:10.242Z,99696.03
2023-04-26T01:04:37.733Z,99696.97
2023-04-26T01:07:05.481Z,99693.88
2023-04-26T01:09:32.976Z,99698.81
2023-04-26T01:12:01.139Z,99707.94
2023-04-26T01:14:28.905Z,99695.25
2023-04-26T01:16:57.635Z,99703.97
2023-04-26T01:19:25.629Z,99711.31
2023-04-26T01:21:52.821Z,99709.78
2023-04-26T01:24:19.617Z,99709.97
2023-04-26T01:26:46.896Z,99711.94
2023-04-26T01:29:19.858Z,99714.91
2023-04-26T01:31:48.036Z,99715.09
2023-04-26T01:34:15.197Z,99723.72
2023-04-26T01:36:42.642Z,99721.78
2023-04-26T01:39:09.669Z,99716.69
2023-04-26T01:41:36.852Z,99733.22
2023-04-26T01:44:03.947Z,99722.88
2023-04-26T01:46:31.047Z,99725.59
2023-04-26T01:48:57.927Z,99727.56
2023-04-26T01:51:25.002Z,99729.34
2023-04-26T01:53:51.796Z,99723.06
2023-04-26T01:56:19.905Z,99730.19
2023-04-26T01:58:46.767Z,99738.16
2023-04-26T02:01:13.871Z,99728.50
2023-04-26T02:03:40.852Z,99732.75
2023-04-26T02:06:08.177Z,99729.28
2023-04-26T02:08:36.599Z,99731.91
2023-04-26T02:11:03.759Z,99742.66
2023-04-26T02:13:31.186Z,99738.00
2023-04-26T02:15:59.379Z,99744.94
2023-04-26T02:18:26.820Z,99743.25
2023-04-26T02:20:53.931Z,99745.19
2023-04-26T02:23:20.798Z,99738.25
2023-04-26T02:25:48.869Z,99743.59
2023-04-26T02:28:18.808Z,99748.16
2023-04-26T02:30:45.870Z,99747.16
2023-04-26T02:33:12.677Z,99752.31
2023-04-26T02:35:39.751Z,99750.88
2023-04-26T02:38:07.389Z,99752.06
2023-04-26T02:40:34.451Z,99750.13
2023-04-26T02:43:01.641Z,99748.50
2023-04-26T02:45:28.754Z,99753.19
2023-04-26T02:47:55.749Z,99746.66
2023-04-26T02:50:23.269Z,99758.00
2023-04-26T02:52:50.075Z,99762.31
2023-04-26T02:55:17.411Z,99761.13
2023-04-26T02:57:44.272Z,99768.34
2023-04-26T03:00:14.106Z,99769.28
2023-04-26T03:02:41.377Z,99766.91
2023-04-26T03:05:09.654Z,99777.41
2023-04-26T03:07:37.056Z,99777.31
2023-04-26T03:10:05.210Z,99789.69
2023-04-26T03:12:32.029Z,99795.88
2023-04-26T03:14:59.144Z,99798.41
2023-04-26T03:17:26.027Z,99803.06
2023-04-26T03:19:53.094Z,99803.91
2023-04-26T03:22:19.844Z,99812.72
2023-04-26T03:24:47.689Z,99810.28
2023-04-26T03:27:14.520Z,99813.97
2023-04-26T03:29:43.887Z,99823.41
2023-04-26T03:32:11.174Z,99816.69
2023-04-26T03:34:38.370Z,99821.44
2023-04-26T03:37:05.232Z,99821.19
2023-04-26T03:39:32.322Z,99818.16
2023-04-26T03:41:59.180Z,99834.88
2023-04-26T03:44:26.310Z,99825.94
2023-04-26T03:46:53.510Z,99828.88
2023-04-26T03:49:21.168Z,99836.00
2023-04-26T03:51:47.997Z,99833.88
2023-04-26T03:54:16.232Z,99839.63
2023-04-26T03:56:43.019Z,99846.03
2023-04-26T03:59:10.190Z,99851.28
2023-04-26T04:01:37.207Z,99841.47
2023-04-26T04:04:04.565Z,99845.69
2023-04-26T04:06:32.833Z,99844.78
2023-04-26T04:08:59.898Z,99848.28
2023-04-26T04:11:26.951Z,99859.66
2023-04-26T04:13:53.981Z,99850.88
2023-04-26T04:16:26.736Z,99857.03
2023-04-26T04:18:56.654Z,99863.06
2023-04-26T04:21:23.405Z,99855.88
2023-04-26T04:23:50.468Z,99854.19
2023-04-26T04:26:17.582Z,99844.13
2023-04-26T04:28:45.724Z,99848.38
2023-04-26T04:31:13.126Z,99840.22
2023-04-26T04:33:40.410Z,99865.09
2023-04-26T04:36:08.329Z,99873.69
2023-04-26T04:38:36.114Z,99879.75
2023-04-26T04:41:02.944Z,99880.28
2023-04-26T04:43:30.093Z,99882.66
2023-04-26T04:45:56.865Z,99892.97
2023-04-26T04:48:23.898Z,99900.75
2023-04-26T04:50:50.849Z,99901.78
2023-04-26T04:53:17.994Z,99893.72
2023-04-26T04:55:44.946Z,99908.81
2023-04-26T04:58:12.365Z,99911.13
2023-04-26T05:00:39.107Z,99919.75
2023-04-26T05:03:08.643Z,99917.44
2023-04-26T05:05:35.771Z,99923.97
2023-04-26T05:08:02.882Z,99935.91
2023-04-26T05:10:29.647Z,99924.81
2023-04-26T05:12:56.881Z,99927.47
2023-04-26T05:15:24.037Z,99928.56
2023-04-26T05:17:51.651Z,99930.25
2023-04-26T05:20:18.508Z,99931.59
2023-04-26T05:22:46.820Z,99929.72
2023-04-26T05:25:14.113Z,99936.53
2023-04-26T05:27:41.254Z,99938.22
2023-04-26T05:30:08.652Z,99930.09
2023-04-26T05:32:35.818Z,99930.06
2023-04-26T05:35:02.775Z,99931.25
2023-04-26T05:37:29.953Z,99938.25
2023-04-26T05:39:56.752Z,99935.63
2023-04-26T05:42:23.804Z,99935.69
2023-04-26T05:44:50.672Z,99934.59
2023-04-26T05:47:17.809Z,99941.13
2023-04-26T05:49:44.587Z,99934.44
2023-04-26T05:52:11.704Z,99943.19
2023-04-26T05:54:38.509Z,99948.34
2023-04-26T05:57:08.476Z,99939.41
2023-04-26T05:59:38.053Z,99955.47
2023-04-26T06:02:05.386Z,99944.69
2023-04-26T06:04:32.794Z,99953.28
2023-04-26T06:07:00.569Z,99947.13
2023-04-26T06:09:27.436Z,99945.41
2023-04-26T06:11:54.600Z,99955.63
2023-04-26T06:14:30.000Z,99952.19
2023-04-26T06:16:58.140Z,99958.50
2023-04-26T06:19:25.108Z,99966.78
2023-04-26T06:21:54.921Z,99956.00
2023-04-26T06:24:23.208Z,99971.94
2023-04-26T06:26:50.332Z,99967.63
2023-04-26T06:29:17.330Z,99969.16
2023-04-26T06:31:44.513Z,99961.75
2023-04-26T06:34:11.434Z,99968.47
2023-04-26T06:36:38.487Z,99972.69
2023-04-26T06:39:05.272Z,99963.50
2023-04-26T06:41:32.370Z,99971.03
2023-04-26T06:43:59.209Z,99970.19
2023-04-26T06:46:29.246Z,99970.66
2023-04-26T06:48:56.264Z,99978.47
2023-04-26T06:51:23.414Z,99978.66
2023-04-26T06:53:53.209Z,99971.78
2023-04-26T06:56:20.748Z,99976.50
2023-04-26T06:59:02.651Z,99972.91
2023-04-26T07:01:33.864Z,99965.16
2023-04-26T07:04:07.870Z,99967.13
2023-04-26T07:06:35.896Z,99979.78
2023-04-26T07:09:03.287Z,99979.59
2023-04-26T07:11:31.560Z,99977.31
2023-04-26T07:13:58.390Z,99985.72
2023-04-26T07:16:27.051Z,99985.72
2023-04-26T07:18:58.108Z,99982.75
2023-04-26T07:21:26.775Z,99987.41
2023-04-26T07:23:55.692Z,99992.72
2023-04-26T07:26:23.460Z,100004.75
2023-04-26T07:28:53.897Z,99994.16
2023-04-26T07:31:21.555Z,100002.66
2023-04-26T07:33:49.043Z,100008.94
2023-04-26T07:36:16.228Z,99998.16
2023-04-26T07:38:43.062Z,100008.09
2023-04-26T07:41:10.320Z,100009.84
2023-04-26T07:43:37.839Z,100004.00
2023-04-26T07:46:05.082Z,100007.19
2023-04-26T07:48:32.046Z,100007.69
2023-04-26T07:51:08.096Z,100020.75
2023-04-26T07:53:35.419Z,100024.75
2023-04-26T07:56:06.052Z,100029.84
2023-04-26T07:58:33.093Z,100024.66
2023-04-26T08:01:00.897Z,100034.84
2023-04-26T08:03:28.486Z,100030.59
2023-04-26T08:05:56.057Z,100031.53
2023-04-26T08:08:23.171Z,100031.00
2023-04-26T08:10:50.783Z,100028.97
2023-04-26T08:13:17.597Z,100028.69
2023-04-26T08:15:44.797Z,100044.56
2023-04-26T08:18:11.774Z,100039.56
2023-04-26T08:20:39.365Z,100044.53
2023-04-26T08:23:06.192Z,100045.69
2023-04-26T08:25:34.954Z,100048.13
2023-04-26T08:28:02.407Z,100052.69
2023-04-26T08:30:29.672Z,100057.31
2023-04-26T08:32:56.785Z,100058.47
2023-04-26T08:35:23.939Z,100047.88
2023-04-26T08:37:51.844Z,100058.06
2023-04-26T08:40:23.857Z,100048.34
2023-04-26T08:42:52.708Z,100059.88
2023-04-26T08:45:21.102Z,100058.94
2023-04-26T08:47:53.645Z,100063.53
2023-04-26T08:50:22.728Z,100065.63
2023-04-26T08:52:51.544Z,100060.22
2023-04-26T08:55:22.582Z,100061.69
2023-04-26T08:57:50.877Z,100061.47
2023-04-26T09:00:19.428Z,100065.75
2023-04-26T09:02:48.716Z,100066.81
2023-04-26T09:05:16.162Z,100067.25
2023-04-26T09:07:45.462Z,100067.50
2023-04-26T09:10:13.694Z,100063.25
2023-04-26T09:12:41.662Z,100055.72
2023-04-26T09:15:09.462Z,100058.63
2023-04-26T09:17:38.568Z,100060.63
2023-04-26T09:20:29.326Z,100062.75
2023-04-26T09:23:07.158Z,100045.88
2023-04-26T09:25:37.753Z,100061.38
2023-04-26T09:28:18.505Z,100066.13
2023-04-26T09:30:45.739Z,100063.13
2023-04-26T09:33:12.685Z,100048.91
2023-04-26T09:35:41.420Z,100048.78
2023-04-26T09:38:18.698Z,100051.44
2023-04-26T09:40:48.125Z,100055.06
2023-04-26T09:43:22.059Z,100056.13
2023-04-26T09:45:56.243Z,100056.50
2023-04-26T09:48:31.438Z,100055.31
2023-04-26T09:51:09.131Z,100053.59
2023-04-26T09:53:38.762Z,100049.28
2023-04-26T09:56:08.783Z,100052.09
2023-04-26T09:59:02.245Z,100050.22
2023-04-26T10:01:30.414Z,100048.53
2023-04-26T10:04:00.895Z,100052.47
2023-04-26T10:06:28.516Z,100050.78
2023-04-26T10:08:56.134Z,100052.75
2023-04-26T10:11:24.697Z,100044.78
2023-04-26T10:13:51.901Z,100046.13
2023-04-26T10:16:21.322Z,100045.03
2023-04-26T10:18:49.368Z,100048.34
2023-04-26T10:21:22.687Z,100048.72
2023-04-26T10:23:50.024Z,100054.00
2023-04-26T10:26:53.126Z,100055.16
2023-04-26T10:29:46.193Z,100054.72
2023-04-26T10:32:17.320Z,100056.81
2023-04-26T10:34:44.457Z,100048.72
2023-04-26T10:37:13.666Z,100052.28
2023-04-26T10:39:42.411Z,100068.28
2023-04-26T10:42:26.602Z,100067.53
2023-04-26T10:45:00.567Z,100063.13
2023-04-26T10:47:32.347Z,100052.28
2023-04-26T10:50:05.851Z,100051.50
2023-04-26T10:52:34.022Z,100056.69
2023-04-26T10:55:02.491Z,100050.41
2023-04-26T10:57:50.615Z,100044.44
2023-04-26T11:00:31.356Z,100046.81
2023-04-26T11:03:08.892Z,100050.41
2023-04-26T11:06:06.052Z,100041.16
2023-04-26T11:08:34.368Z,100044.97
2023-04-26T11:11:12.190Z,100051.56
2023-04-26T11:13:43.470Z,100052.75
2023-04-26T11:16:15.265Z,100050.84
2023-04-26T11:18:46.565Z,100048.84
2023-04-26T11:21:17.667Z,100048.56
2023-04-26T11:23:55.097Z,100048.84
2023-04-26T11:26:22.126Z,100046.22
2023-04-26T11:28:49.316Z,100057.69
2023-04-26T11:31:18.741Z,100051.19
2023-04-26T11:33:46.457Z,100057.38
2023-04-26T11:36:14.776Z,100054.69
2023-04-26T11:38:41.980Z,100070.66
2023-04-26T11:41:10.503Z,100063.78
2023-04-26T11:43:39.069Z,100067.06
2023-04-26T11:46:07.495Z,100063.78
2023-04-26T11:48:36.725Z,100065.16
2023-04-26T11:51:05.056Z,100064.56
2023-04-26T11:53:42.597Z,100076.88
2023-04-26T11:56:19.806Z,100067.59
2023-04-26T11:58:52.766Z,100061.44
2023-04-26T12:01:22.061Z,100072.31
2023-04-26T12:03:53.907Z,100065.03
2023-04-26T12:06:29.250Z,100070.38
2023-04-26T12:08:57.086Z,100062.16
2023-04-26T12:11:23.911Z,100071.22
2023-04-26T12:13:51.077Z,100067.81
2023-04-26T12:16:26.433Z,100062.38
2023-04-26T12:18:55.296Z,100066.97
2023-04-26T12:21:22.475Z,100055.28
2023-04-26T12:23:49.912Z,100062.03
2023-04-26T12:26:17.090Z,100066.13
2023-04-26T12:28:44.352Z,100065.53
2023-04-26T12:31:11.980Z,100082.34
2023-04-26T12:33:39.231Z,100082.84
2023-04-26T12:36:11.389Z,100079.81
2023-04-26T12:38:40.331Z,100073.22
2023-04-26T12:41:07.289Z,100079.28
2023-04-26T12:43:34.487Z,100076.34
2023-04-26T12:46:01.713Z,100064.34
2023-04-26T12:48:29.038Z,100066.09
2023-04-26T12:50:56.116Z,100083.84
2023-04-26T12:53:23.207Z,100079.28
2023-04-26T12:55:50.033Z,100066.50
2023-04-26T12:58:17.173Z,100074.19
2023-04-26T13:00:44.784Z,100086.97
2023-04-26T13:03:14.804Z,100076.59
2023-04-26T13:05:42.147Z,100094.09
2023-04-26T13:08:09.261Z,100073.81
2023-04-26T13:10:36.033Z,100078.22
2023-04-26T13:13:03.362Z,100078.03
2023-04-26T13:15:30.269Z,100093.03
2023-04-26T13:17:57.411Z,100093.03
2023-04-26T13:20:25.983Z,100092.41
2023-04-26T13:22:54.321Z,100091.22
2023-04-26T13:25:21.449Z,100092.66
2023-04-26T13:27:48.514Z,100089.78
2023-04-26T13:30:15.463Z,100093.81
2023-04-26T13:32:42.870Z,100089.47
2023-04-26T13:35:09.996Z,100092.31
2023-04-26T13:37:37.121Z,100096.50
2023-04-26T13:40:04.908Z,100098.06
2023-04-26T13:42:32.612Z,100084.84
2023-04-26T13:45:00.214Z,100088.91
2023-04-26T13:47:28.057Z,100093.50
2023-04-26T13:49:54.853Z,100098.44
2023-04-26T13:52:22.213Z,100101.44
2023-04-26T13:54:49.214Z,100113.41
2023-04-26T13:57:16.536Z,100123.28
2023-04-26T13:59:43.313Z,100138.34
2023-04-26T14:02:10.786Z,100125.50
2023-04-26T14:04:38.305Z,100139.03
2023-04-26T14:07:05.917Z,100127.00
2023-04-26T14:09:33.356Z,100133.53
2023-04-26T14:12:07.867Z,100132.78
2023-04-26T14:14:36.418Z,100120.22
2023-04-26T14:17:03.729Z,100102.69
2023-04-26T14:19:30.614Z,100119.44
2023-04-26T14:21:57.443Z,100121.78
2023-04-26T14:24:24.567Z,100128.97
2023-04-26T14:26:51.526Z,100129.03
2023-04-26T14:29:18.791Z,100140.09
2023-04-26T14:31:46.020Z,100136.38
2023-04-26T14:34:13.454Z,100127.88
2023-04-26T14:36:40.377Z,100129.31
2023-04-26T14:39:07.477Z,100128.16
2023-04-26T14:41:34.253Z,100123.31
2023-04-26T14:44:01.642Z,100143.94
2023-04-26T14:46:28.697Z,100140.44
2023-04-26T14:48:55.996Z,100146.69
2023-04-26T14:51:22.831Z,100142.44
2023-04-26T14:53:49.884Z,100137.50
2023-04-26T14:56:16.723Z,100144.78
2023-04-26T14:58:45.086Z,100132.41
2023-04-26T15:01:11.956Z,100139.34
2023-04-26T15:03:39.361Z,100133.09
2023-04-26T15:06:09.627Z,100141.28
2023-04-26T15:08:37.237Z,100143.41
2023-04-26T15:11:04.387Z,100161.00
2023-04-26T15:13:31.480Z,100148.97
2023-04-26T15:15:58.892Z,100156.34
2023-04-26T15:18:26.140Z,100159.25
2023-04-26T15:20:53.233Z,100165.72
2023-04-26T15:23:20.386Z,100160.38
2023-04-26T15:25:47.277Z,100166.41
2023-04-26T15:28:15.962Z,100166.69
2023-04-26T15:30:44.043Z,100175.03
2023-04-26T15:33:12.845Z,100164.16
2023-04-26T15:35:39.934Z,100176.06
2023-04-26T15:38:07.048Z,100168.69
2023-04-26T15:43:00.904Z,100175.88
2023-04-26T15:45:27.665Z,100174.81
2023-04-26T15:47:55.257Z,100169.69
2023-04-26T15:50:22.303Z,100164.31
2023-04-26T15:52:49.342Z,100165.53
2023-04-26T15:55:16.477Z,100158.84
2023-04-26T15:57:43.639Z,100175.44
2023-04-26T16:00:14.478Z,100165.69
2023-04-26T16:02:44.591Z,100174.44
2023-04-26T16:05:12.213Z,100168.09
2023-04-26T16:07:40.232Z,100159.19
2023-04-26T16:10:09.147Z,100165.88
2023-04-26T16:12:39.480Z,100161.63
2023-04-26T16:15:08.276Z,100172.06
2023-04-26T16:17:36.039Z,100164.75
2023-04-26T16:20:06.738Z,100179.09
2023-04-26T16:22:35.138Z,100170.72
2023-04-26T16:25:03.092Z,100179.28
2023-04-26T16:27:30.346Z,100180.63
2023-04-26T16:29:57.613Z,100183.16
2023-04-26T16:32:26.260Z,100182.56
2023-04-26T16:34:53.185Z,100202.88
2023-04-26T16:37:20.306Z,100198.59
2023-04-26T16:39:47.180Z,100192.16
2023-04-26T16:42:14.256Z,100201.78
2023-04-26T16:44:41.493Z,100194.91
2023-04-26T16:47:08.579Z,100197.19
2023-04-26T16:49:35.386Z,100207.97
2023-04-26T16:52:02.597Z,100204.69
2023-04-26T16:54:29.478Z,100207.19
2023-04-26T16:56:56.890Z,100213.84
2023-04-26T16:59:23.727Z,100214.00
2023-04-26T17:01:52.043Z,100208.44
2023-04-26T17:04:18.986Z,100216.03
2023-04-26T17:06:46.311Z,100211.75
2023-04-26T17:09:13.161Z,100214.75
2023-04-26T17:11:43.538Z,100221.38
2023-04-26T17:14:10.883Z,100217.84
2023-04-26T17:16:38.017Z,100225.59
2023-04-26T17:19:04.942Z,100222.84
2023-04-26T17:21:32.178Z,100224.28
2023-04-26T17:23:59.082Z,100234.84
2023-04-26T17:26:26.509Z,100226.97
2023-04-26T17:28:53.863Z,100231.94
2023-04-26T17:31:21.287Z,100230.59
2023-04-26T17:33:48.180Z,100237.84
2023-04-26T17:36:15.938Z,100238.69
2023-04-26T17:38:42.866Z,100237.22
2023-04-26T17:41:12.649Z,100254.59
2023-04-26T17:43:39.386Z,100245.09
2023-04-26T17:46:06.573Z,100249.16
2023-04-26T17:48:33.460Z,100252.16
2023-04-26T17:51:00.695Z,100255.59
2023-04-26T17:53:27.888Z,100271.31
2023-04-26T17:55:55.316Z,100272.34
2023-04-26T17:58:22.865Z,100279.03
2023-04-26T18:00:50.422Z,100273.66
2023-04-26T18:03:17.430Z,100279.31
2023-04-26T18:05:44.718Z,100286.66
2023-04-26T18:08:11.481Z,100278.53
2023-04-26T18:10:38.613Z,100288.59
2023-04-26T18:13:05.609Z,100289.78
2023-04-26T18:15:32.724Z,100287.34
2023-04-26T18:17:59.637Z,100289.59
2023-04-26T18:20:27.144Z,100293.78
2023-04-26T18:22:53.968Z,100299.41
2023-04-26T18:25:21.110Z,100297.91
2023-04-26T18:27:47.899Z,100303.34
2023-04-26T18:30:15.146Z,100304.47
2023-04-26T18:32:41.954Z,100305.09
2023-04-26T18:35:09.649Z,100311.09
2023-04-26T18:37:36.707Z,100313.19
2023-04-26T18:40:07.134Z,100315.97
2023-04-26T18:42:33.932Z,100325.16
2023-04-26T18:45:02.133Z,100316.69
2023-04-26T18:47:29.980Z,100324.00
2023-04-26T18:49:57.069Z,100331.03
2023-04-26T18:52:23.885Z,100336.81
2023-04-26T18:54:51.090Z,100337.84
2023-04-26T18:57:22.190Z,100340.72
2023-04-26T18:59:49.513Z,100336.38
2023-04-26T19:02:16.548Z,100339.44
2023-04-26T19:04:43.872Z,100342.25
2023-04-26T19:07:10.721Z,100340.47
2023-04-26T19:09:50.402Z,100348.59
2023-04-26T19:12:20.729Z,100345.31
2023-04-26T19:14:47.867Z,100343.75
2023-04-26T19:17:14.713Z,100350.09
2023-04-26T19:19:41.845Z,100345.78
2023-04-26T19:22:08.617Z,100346.91
2023-04-26T19:24:35.937Z,100349.59
2023-04-26T19:27:02.879Z,100348.91
2023-04-26T19:29:30.258Z,100352.63
2023-04-26T19:31:59.377Z,100350.94
2023-04-26T19:34:26.769Z,100349.16
2023-04-26T19:36:53.778Z,100349.47
2023-04-26T19:39:23.489Z,100356.53
2023-04-26T19:41:51.336Z,100349.88
2023-04-26T19:44:18.489Z,100352.69
2023-04-26T19:46:48.345Z,100352.06
2023-04-26T19:49:15.835Z,100357.66
2023-04-26T19:51:42.649Z,100361.31
2023-04-26T19:54:09.700Z,100359.69
2023-04-26T19:56:36.607Z,100361.53
2023-04-26T19:59:04.440Z,100356.44
2023-04-26T20:01:32.237Z,100365.03
2023-04-26T20:03:59.568Z,100368.69
2023-04-26T20:06:27.575Z,100367.84
2023-04-26T20:08:54.685Z,100366.91
2023-04-26T20:11:22.353Z,100370.66
2023-04-26T20:13:49.435Z,100370.03
2023-04-26T20:16:16.489Z,100374.44
2023-04-26T20:18:43.627Z,100379.59
2023-04-26T20:21:10.516Z,100383.34
2023-04-26T20:23:37.821Z,100387.13
2023-04-26T20:26:04.633Z,100387.94
2023-04-26T20:28:31.744Z,100395.50
2023-04-26T20:30:58.578Z,100393.16
2023-04-26T20:33:25.603Z,100391.75
2023-04-26T20:35:53.277Z,100395.16
2023-04-26T20:38:21.190Z,100392.41
2023-04-26T20:40:48.771Z,100399.25
2023-04-26T20:43:16.219Z,100407.06
2023-04-26T20:45:43.063Z,100409.84
2023-04-26T20:48:10.674Z,100405.72
2023-04-26T20:50:37.535Z,100406.66
2023-04-26T20:53:04.771Z,100400.78
2023-04-26T20:55:31.536Z,100400.97
2023-04-26T20:57:58.738Z,100401.44
2023-04-26T21:00:25.670Z,100401.44
2023-04-26T21:02:52.914Z,100414.84
2023-04-26T21:05:19.895Z,100407.72
2023-04-26T21:07:46.937Z,100416.53
2023-04-26T21:10:13.728Z,100418.66
2023-04-26T21:12:41.962Z,100413.00
2023-04-26T21:15:09.118Z,100417.94
2023-04-26T21:17:36.376Z,100422.69
2023-04-26T21:20:04.214Z,100425.84
2023-04-26T21:22:31.320Z,100427.97
2023-04-26T21:24:58.150Z,100436.38
2023-04-26T21:27:25.497Z,100441.78
2023-04-26T21:29:52.266Z,100440.31
2023-04-26T21:32:19.368Z,100436.97
2023-04-26T21:34:46.193Z,100438.66
2023-04-26T21:37:13.418Z,100447.50
2023-04-26T21:39:40.321Z,100445.75
2023-04-26T21:42:07.546Z,100439.84
2023-04-26T21:44:34.420Z,100438.91
2023-04-26T21:47:01.527Z,100442.78
2023-04-26T21:49:28.428Z,100453.44
2023-04-26T21:51:55.496Z,100450.91
2023-04-26T21:54:22.543Z,100454.59
2023-04-26T21:56:49.632Z,100452.81
2023-04-26T21:59:19.729Z,100446.75
2023-04-26T22:01:46.948Z,100452.31
2023-04-26T22:04:13.942Z,100452.84
2023-04-26T22:06:41.227Z,100453.81
2023-04-26T22:09:10.409Z,100456.50
2023-04-26T22:11:37.736Z,100463.03
2023-04-26T22:14:04.553Z,100463.44
2023-04-26T22:16:32.097Z,100462.75
2023-04-26T22:19:01.074Z,100459.19
2023-04-26T22:21:28.456Z,100465.66
2023-04-26T22:23:55.474Z,100462.09
2023-04-26T22:26:22.768Z,100470.88
2023-04-26T22:28:49.561Z,100472.44
2023-04-26T22:31:17.137Z,100471.06
2023-04-26T22:33:43.928Z,100477.25
2023-04-26T22:36:11.021Z,100475.63
2023-04-26T22:38:37.803Z,100479.81
2023-04-26T22:41:07.279Z,100479.75
2023-04-26T22:43:34.763Z,100481.63
2023-04-26T22:46:02.205Z,100488.84
2023-04-26T22:48:29.129Z,100490.59
2023-04-26T22:50:56.248Z,100482.88
2023-04-26T22:53:23.059Z,100483.88
2023-04-26T22:55:51.818Z,100486.53
2023-04-26T22:58:18.976Z,100488.28
2023-04-26T23:00:46.099Z,100499.06
2023-04-26T23:03:13.022Z,100506.28
2023-04-26T23:05:40.290Z,100501.13
2023-04-26T23:08:07.152Z,100500.84
2023-04-26T23:10:34.239Z,100493.84
2023-04-26T23:13:01.006Z,100494.34
2023-04-26T23:15:28.149Z,100504.53
2023-04-26T23:17:55.036Z,100501.50
2023-04-26T23:20:22.772Z,100505.09
2023-04-26T23:22:49.661Z,100510.59
2023-04-26T23:25:16.815Z,100509.06
2023-04-26T23:27:43.582Z,100515.41
2023-04-26T23:30:11.082Z,100512.09
2023-04-26T23:32:37.905Z,100523.47
2023-04-26T23:35:05.599Z,100521.38
2023-04-26T23:37:32.809Z,100523.63
2023-04-26T23:40:00.015Z,100525.06
2023-04-26T23:42:26.744Z,100525.28
2023-04-26T23:44:53.811Z,100524.47
2023-04-26T23:47:21.171Z,100522.56
2023-04-26T23:49:48.211Z,100524.09
2023-04-26T23:52:14.957Z,100520.16
2023-04-26T23:54:42.033Z,100520.09
2023-04-26T23:57:09.211Z,100517.63
2023-04-26T23:59:36.281Z,100517.75
